Madison Maersk — OWJG2 — position and weather

sailwx.info

Track history (hours):
 
Tides and Currents Weather Stations Pressure Air Temp Water Temp Dewpoint Dewpoint Depression Visibility Wind Speed Wind Dir Waves Ship Positions

Madison Maersk

Last reported at 2017-Dec-11 17:00 UTC. Time now 2017-Dec-14 02:39 UTC.
Position N 51°57' E 004°03'.

Length 399 m; draft 10 m.

Type: Ship. MMSI: 219018864.

Date/timePositionNaut miles runAvg speedWind from/ knotsBaromVisibWave heightAir tempDewpointWater temp
2017-Dec-11 17:00N 51°57' E 004°03'0 0.0
2017-Dec-11 16:30N 51°57' E 004°03'0 0.0
2017-Dec-11 16:00N 51°57' E 004°03'0 0.0
2017-Dec-11 15:30N 51°57' E 004°03'0 0.0
2017-Dec-11 15:00N 51°57' E 004°03'0 0.0
2017-Dec-11 14:30N 51°57' E 004°03'0 0.0
2017-Dec-11 14:00N 51°57' E 004°03'0 0.0
2017-Dec-11 13:30N 51°57' E 004°03'0 0.0
2017-Dec-11 13:00N 51°57' E 004°03'0 0.0
2017-Dec-11 12:30N 51°57' E 004°03'0 0.0
2017-Dec-11 12:00N 51°57' E 004°03'0 0.0
2017-Dec-11 11:30N 51°57' E 004°03'0 0.0
2017-Dec-11 11:00N 51°57' E 004°03'0 0.0
2017-Dec-11 10:30N 51°57' E 004°03'0 0.0
2017-Dec-11 10:00N 51°57' E 004°03'0 0.0
2017-Dec-11 09:30N 51°57' E 004°03'0 0.0
2017-Dec-11 09:00N 51°57' E 004°03'0 0.0
2017-Dec-11 08:30N 51°57' E 004°03'0 0.0
2017-Dec-11 08:00N 51°57' E 004°03'0 0.0
2017-Dec-11 07:30N 51°57' E 004°03'0 0.0
2017-Dec-11 07:00N 51°57' E 004°03'0 0.0
2017-Dec-11 06:30N 51°57' E 004°03'0 0.0
2017-Dec-11 06:00N 51°57' E 004°03'0 0.0
2017-Dec-11 05:30N 51°57' E 004°03'0 0.0
2017-Dec-11 05:00N 51°57' E 004°03'0 0.0
2017-Dec-11 04:30N 51°57' E 004°03'0 0.0
2017-Dec-11 04:00N 51°57' E 004°03'0 0.0
2017-Dec-11 03:30N 51°57' E 004°03'0 0.0
2017-Dec-11 03:00N 51°57' E 004°03'0 0.0
2017-Dec-11 02:30N 51°57' E 004°03'0 0.0
2017-Dec-11 02:00N 51°57' E 004°03'0 0.0
2017-Dec-11 01:30N 51°57' E 004°03'1 1.1
2017-Dec-11 01:00N 51°57' E 004°04'2 3.3
2017-Dec-11 00:30N 51°59' E 004°05'3 6.9
2017-Dec-11 00:00N 52°00' E 003°60'611.5
2017-Dec-10 23:30N 52°00' E 003°51'3 6.1
2017-Dec-10 23:01N 51°60' E 003°46'3 6.7
2017-Dec-10 22:31N 51°59' E 003°41'4 7.4
2017-Dec-10 22:00N 51°58' E 003°35'2 4.9
2017-Dec-10 21:30N 51°57' E 003°31'3 6.5
2017-Dec-10 20:59N 51°56' E 003°25'4819.8
2017-Dec-10 18:34N 51°53' E 002°08'122.1
2017-Dec-10 18:30N 51°52' E 002°06'1121.6
2017-Dec-10 18:00N 51°48' E 001°50'1019.3
2017-Dec-10 17:30N 51°52' E 001°35'612.3
2017-Dec-10 17:00N 51°56' E 001°29'612.2
2017-Dec-10 16:30N 51°56' E 001°19'1 1.9
2017-Dec-10 16:00N 51°57' E 001°19'0 0.3
2017-Dec-10 15:30N 51°57' E 001°19'0 0.0
2017-Dec-10 15:00N 51°57' E 001°19'0 0.0
2017-Dec-10 14:30N 51°57' E 001°19'0 0.0
2017-Dec-10 14:00N 51°57' E 001°19'0 0.0
2017-Dec-10 13:30N 51°57' E 001°19'0 0.0
2017-Dec-10 13:00N 51°57' E 001°19'0 0.0
2017-Dec-10 12:30N 51°57' E 001°19'0 0.0
2017-Dec-10 12:00N 51°57' E 001°19'0 0.0
2017-Dec-10 11:30N 51°57' E 001°19'0 0.0
2017-Dec-10 11:00N 51°57' E 001°19'0 0.0
2017-Dec-10 10:30N 51°57' E 001°19'0 0.0
2017-Dec-10 10:00N 51°57' E 001°19'0 0.0
2017-Dec-10 09:30N 51°57' E 001°19'0 0.0
2017-Dec-10 09:00N 51°57' E 001°19'0 0.0
2017-Dec-10 08:30N 51°57' E 001°19'0 0.0
2017-Dec-10 08:00N 51°57' E 001°19'0 0.0
2017-Dec-10 07:30N 51°57' E 001°19'0 0.0
2017-Dec-10 07:00N 51°57' E 001°19'0 0.0
2017-Dec-10 06:30N 51°57' E 001°19'0 0.0
2017-Dec-10 06:00N 51°57' E 001°19'0 0.0
2017-Dec-10 05:31N 51°57' E 001°19'0 0.0
2017-Dec-10 05:01N 51°57' E 001°19'0 0.0
2017-Dec-10 04:31N 51°57' E 001°19'0 0.0
2017-Dec-10 04:01N 51°57' E 001°19'0 0.0
2017-Dec-10 03:30N 51°57' E 001°19'0 0.0
2017-Dec-10 03:00N 51°57' E 001°19'0 0.0
2017-Dec-10 02:30N 51°57' E 001°19'0 0.0
2017-Dec-10 02:00N 51°57' E 001°19'0 0.0
2017-Dec-10 01:30N 51°57' E 001°19'0 0.0
2017-Dec-10 01:00N 51°57' E 001°19'0 0.0
2017-Dec-10 00:30N 51°57' E 001°19'0 0.0
2017-Dec-10 00:00N 51°57' E 001°19'0 0.0
2017-Dec-09 23:30N 51°57' E 001°19'0 0.0
2017-Dec-09 23:00N 51°57' E 001°19'0 0.0
2017-Dec-09 22:30N 51°57' E 001°19'0 0.0
2017-Dec-09 22:01N 51°57' E 001°19'0 0.0
2017-Dec-09 21:30N 51°57' E 001°19'0 0.0
2017-Dec-09 21:01N 51°57' E 001°19'0 0.0
2017-Dec-09 20:30N 51°57' E 001°19'0 0.0
2017-Dec-09 20:00N 51°57' E 001°19'0 0.0
2017-Dec-09 19:30N 51°57' E 001°19'0 0.0
2017-Dec-09 19:00N 51°57' E 001°19'0 0.0
2017-Dec-09 18:30N 51°57' E 001°19'0 0.0
2017-Dec-09 18:00N 51°57' E 001°19'0 0.0
2017-Dec-09 17:30N 51°57' E 001°19'0 0.0
2017-Dec-09 17:00N 51°57' E 001°19'0 0.0
2017-Dec-09 16:31N 51°57' E 001°19'0 0.0
2017-Dec-09 16:01N 51°57' E 001°19'0 0.0
2017-Dec-09 15:31N 51°57' E 001°19'0 0.0
2017-Dec-09 15:01N 51°57' E 001°19'0 0.0
2017-Dec-09 14:31N 51°57' E 001°19'0 0.0
2017-Dec-09 14:01N 51°57' E 001°19'0 0.0
2017-Dec-09 13:31N 51°57' E 001°19'0 0.0
2017-Dec-09 13:00N 51°57' E 001°19'0 0.0
2017-Dec-09 12:30N 51°57' E 001°19'0 0.0
2017-Dec-09 12:00N 51°57' E 001°19'0 0.0
2017-Dec-09 11:30N 51°57' E 001°19'0 0.0
2017-Dec-09 11:00N 51°57' E 001°19'0 0.0
2017-Dec-09 10:30N 51°57' E 001°19'0 0.0
2017-Dec-09 10:00N 51°57' E 001°19'0 0.0
2017-Dec-09 09:30N 51°57' E 001°19'0 0.0
2017-Dec-09 09:00N 51°57' E 001°19'0 0.0
2017-Dec-09 08:30N 51°57' E 001°19'0 0.0
2017-Dec-09 08:00N 51°57' E 001°19'0 0.0
2017-Dec-09 07:30N 51°57' E 001°19'0 0.0
2017-Dec-09 07:00N 51°57' E 001°19'0 0.0
2017-Dec-09 06:30N 51°57' E 001°19'0 0.0
2017-Dec-09 06:00N 51°57' E 001°19'0 0.0
2017-Dec-09 05:30N 51°57' E 001°19'0 0.0
2017-Dec-09 05:00N 51°57' E 001°19'0 0.0
2017-Dec-09 04:31N 51°57' E 001°19'0 0.0
2017-Dec-09 04:01N 51°57' E 001°19'0 0.0
2017-Dec-09 03:31N 51°57' E 001°19'0 0.0
2017-Dec-09 03:00N 51°57' E 001°19'0 0.0
2017-Dec-09 02:31N 51°57' E 001°19'0 0.0
2017-Dec-09 02:01N 51°57' E 001°19'0 0.0
2017-Dec-09 01:30N 51°57' E 001°19'0 0.0
2017-Dec-09 01:00N 51°57' E 001°19'0 0.0
2017-Dec-09 00:30N 51°57' E 001°19'0 0.0
2017-Dec-09 00:00N 51°57' E 001°19'0 0.0
2017-Dec-08 23:31N 51°57' E 001°19'0 0.0
2017-Dec-08 23:00N 51°57' E 001°19'0 0.0
2017-Dec-08 22:30N 51°57' E 001°19'0 0.0
2017-Dec-08 22:00N 51°57' E 001°19'0 0.0
2017-Dec-08 21:30N 51°57' E 001°19'0 0.0
2017-Dec-08 21:01N 51°57' E 001°19'0 0.0
2017-Dec-08 20:30N 51°57' E 001°19'0 0.0
2017-Dec-08 20:00N 51°57' E 001°19'0 0.0
2017-Dec-08 19:31N 51°57' E 001°19'0 0.0
2017-Dec-08 19:01N 51°57' E 001°19'0 0.0
2017-Dec-08 18:30N 51°57' E 001°19'0 0.0
2017-Dec-08 18:01N 51°57' E 001°19'0 0.0
2017-Dec-08 17:31N 51°57' E 001°19'0 0.0
2017-Dec-08 17:01N 51°57' E 001°19'0 0.0
2017-Dec-08 16:31N 51°57' E 001°19'0 0.0
2017-Dec-08 16:01N 51°57' E 001°19'0 0.0
2017-Dec-08 15:30N 51°57' E 001°19'0 0.0
2017-Dec-08 15:00N 51°57' E 001°19'0 0.0
2017-Dec-08 14:30N 51°57' E 001°19'0 0.0
2017-Dec-08 14:00N 51°57' E 001°19'0 0.0
2017-Dec-08 13:31N 51°57' E 001°19'0 0.0
2017-Dec-08 13:01N 51°57' E 001°19'0 0.0
2017-Dec-08 12:31N 51°57' E 001°19'0 0.0
2017-Dec-08 12:00N 51°57' E 001°19'0 0.0
2017-Dec-08 11:31N 51°57' E 001°19'0 0.0
2017-Dec-08 11:01N 51°57' E 001°19'0 0.0
2017-Dec-08 10:31N 51°57' E 001°19'0 0.0
2017-Dec-08 10:00N 51°57' E 001°19'0 0.0
2017-Dec-08 09:31N 51°57' E 001°19'0 0.0
2017-Dec-08 09:01N 51°57' E 001°19'0 0.0
2017-Dec-08 08:31N 51°57' E 001°19'0 0.0
2017-Dec-08 08:01N 51°57' E 001°19'0 0.0
2017-Dec-08 07:31N 51°57' E 001°19'0 0.0
2017-Dec-08 07:00N 51°57' E 001°19'0 0.0
2017-Dec-08 06:30N 51°57' E 001°19'0 0.0
2017-Dec-08 06:00N 51°57' E 001°19'0 0.0
2017-Dec-08 05:30N 51°57' E 001°19'0 0.0
2017-Dec-08 05:00N 51°57' E 001°19'0 0.2
2017-Dec-08 04:30N 51°57' E 001°19'2 3.1
2017-Dec-08 04:00N 51°56' E 001°21'510.4
2017-Dec-08 03:30N 51°56' E 001°29'510.5
2017-Dec-08 03:01N 51°52' E 001°34'4 7.5
2017-Dec-08 02:30N 51°50' E 001°39'2 4.0
2017-Dec-08 02:00N 51°52' E 001°41'3 6.5
2017-Dec-08 01:30N 51°51' E 001°46'3 6.2
2017-Dec-08 01:00N 51°48' E 001°48'3 5.6
2017-Dec-08 00:30N 51°45' E 001°49'3 6.1
2017-Dec-08 00:00N 51°42' E 001°49'2 4.1
2017-Dec-07 23:30N 51°40' E 001°49'5 9.4
2017-Dec-07 23:00N 51°36' E 001°50'5 9.9
2017-Dec-07 22:30N 51°31' E 001°48'510.1
2017-Dec-07 22:00N 51°26' E 001°46'510.3
2017-Dec-07 21:30N 51°21' E 001°43'510.7
2017-Dec-07 21:00N 51°16' E 001°40'510.5
2017-Dec-07 20:30N 51°11' E 001°40'510.6
2017-Dec-07 20:01N 51°06' E 001°39'612.9
2017-Dec-07 19:30N 51°01' E 001°33'713.2
2017-Dec-07 19:00N 50°55' E 001°27'713.6
2017-Dec-07 18:30N 50°48' E 001°24'713.1
2017-Dec-07 17:57N 50°42' E 001°20'613.5
2017-Dec-07 17:30N 50°38' E 001°13'3213.6
2017-Dec-07 15:10N 50°25' E 000°27'214.1
2017-Dec-07 14:59N 50°24' E 000°23'714.4
2017-Dec-07 14:30N 50°23' E 000°13'714.5
2017-Dec-07 14:00N 50°21' E 000°02'714.7
2017-Dec-07 13:30N 50°20' W 000°10'815.3
2017-Dec-07 13:00N 50°19' W 000°21'816.0
2017-Dec-07 12:30N 50°16' W 000°33'916.8
2017-Dec-07 11:57N 50°13' W 000°47'917.3
2017-Dec-07 11:28N 50°11' W 000°60'1618.0
2017-Dec-07 10:33N 50°06' W 001°24'718.3
2017-Dec-07 10:09N 50°04' W 001°35'4617.4
2017-Dec-07 07:31N 49°52' W 002°44'016.3
2017-Dec-07 07:30N 49°52' W 002°45'815.8
2017-Dec-07 06:59N 49°48' W 002°56'715.6
2017-Dec-07 06:30N 49°44' W 003°06'915.6
2017-Dec-07 05:55N 49°40' W 003°18'615.6
2017-Dec-07 05:30N 49°37' W 003°27'4814.7
2017-Dec-07 02:15N 49°13' W 004°31'2013.6
2017-Dec-07 00:48N 49°03' W 004°56'412.8
2017-Dec-07 00:30N 49°01' W 005°01'5 9.8
2017-Dec-07 00:00N 48°58' W 005°08'1 1.0
2017-Dec-06 23:30N 48°58' W 005°09'4 7.1
2017-Dec-06 23:00N 48°57' W 005°14'612.4
2017-Dec-06 22:30N 48°53' W 005°21'612.6
2017-Dec-06 22:00N 48°50' W 005°29'612.5
2017-Dec-06 21:30N 48°46' W 005°37'913.2
2017-Dec-06 20:50N 48°38' W 005°42'  
2017-Dec-02 15:47N 36°41' E 013°41'518.8
2017-Dec-02 15:30N 36°40' E 013°47'918.8
2017-Dec-02 15:00N 36°37' E 013°58'918.6
2017-Dec-02 14:30N 36°33' E 014°09'918.5
2017-Dec-02 14:00N 36°30' E 014°20'918.3
2017-Dec-02 13:30N 36°28' E 014°31'918.8
2017-Dec-02 13:00N 36°25' E 014°42'918.5
2017-Dec-02 12:30N 36°22' E 014°53'  
Track history (hours):
 
Tides and Currents Weather Stations Pressure Air Temp Water Temp Dewpoint Dewpoint Depression Visibility Wind Speed Wind Dir Waves Ship Positions

Madison Maersk

Last reported at 2017-Dec-11 17:00 UTC. Time now 2017-Dec-14 02:39 UTC.
Position N 51°57' E 004°03'.

Length 399 m; draft 10 m.

Type: Ship. MMSI: 219018864.

Date/timePositionNaut miles runAvg speedWind from/ knotsBaromVisibWave heightAir tempDewpointWater temp
2017-Dec-11 17:00N 51°57' E 004°03'0 0.0
2017-Dec-11 16:30N 51°57' E 004°03'0 0.0
2017-Dec-11 16:00N 51°57' E 004°03'0 0.0
2017-Dec-11 15:30N 51°57' E 004°03'0 0.0
2017-Dec-11 15:00N 51°57' E 004°03'0 0.0
2017-Dec-11 14:30N 51°57' E 004°03'0 0.0
2017-Dec-11 14:00N 51°57' E 004°03'0 0.0
2017-Dec-11 13:30N 51°57' E 004°03'0 0.0
2017-Dec-11 13:00N 51°57' E 004°03'0 0.0
2017-Dec-11 12:30N 51°57' E 004°03'0 0.0
2017-Dec-11 12:00N 51°57' E 004°03'0 0.0
2017-Dec-11 11:30N 51°57' E 004°03'0 0.0
2017-Dec-11 11:00N 51°57' E 004°03'0 0.0
2017-Dec-11 10:30N 51°57' E 004°03'0 0.0
2017-Dec-11 10:00N 51°57' E 004°03'0 0.0
2017-Dec-11 09:30N 51°57' E 004°03'0 0.0
2017-Dec-11 09:00N 51°57' E 004°03'0 0.0
2017-Dec-11 08:30N 51°57' E 004°03'0 0.0
2017-Dec-11 08:00N 51°57' E 004°03'0 0.0
2017-Dec-11 07:30N 51°57' E 004°03'0 0.0
2017-Dec-11 07:00N 51°57' E 004°03'0 0.0
2017-Dec-11 06:30N 51°57' E 004°03'0 0.0
2017-Dec-11 06:00N 51°57' E 004°03'0 0.0
2017-Dec-11 05:30N 51°57' E 004°03'0 0.0
2017-Dec-11 05:00N 51°57' E 004°03'0 0.0
2017-Dec-11 04:30N 51°57' E 004°03'0 0.0
2017-Dec-11 04:00N 51°57' E 004°03'0 0.0
2017-Dec-11 03:30N 51°57' E 004°03'0 0.0
2017-Dec-11 03:00N 51°57' E 004°03'0 0.0
2017-Dec-11 02:30N 51°57' E 004°03'0 0.0
2017-Dec-11 02:00N 51°57' E 004°03'0 0.0
2017-Dec-11 01:30N 51°57' E 004°03'1 1.1
2017-Dec-11 01:00N 51°57' E 004°04'2 3.3
2017-Dec-11 00:30N 51°59' E 004°05'3 6.9
2017-Dec-11 00:00N 52°00' E 003°60'611.5
2017-Dec-10 23:30N 52°00' E 003°51'3 6.1
2017-Dec-10 23:01N 51°60' E 003°46'3 6.7
2017-Dec-10 22:31N 51°59' E 003°41'4 7.4
2017-Dec-10 22:00N 51°58' E 003°35'2 4.9
2017-Dec-10 21:30N 51°57' E 003°31'3 6.5
2017-Dec-10 20:59N 51°56' E 003°25'4819.8
2017-Dec-10 18:34N 51°53' E 002°08'122.1
2017-Dec-10 18:30N 51°52' E 002°06'1121.6
2017-Dec-10 18:00N 51°48' E 001°50'1019.3
2017-Dec-10 17:30N 51°52' E 001°35'612.3
2017-Dec-10 17:00N 51°56' E 001°29'612.2
2017-Dec-10 16:30N 51°56' E 001°19'1 1.9
2017-Dec-10 16:00N 51°57' E 001°19'0 0.3
2017-Dec-10 15:30N 51°57' E 001°19'0 0.0
2017-Dec-10 15:00N 51°57' E 001°19'0 0.0
2017-Dec-10 14:30N 51°57' E 001°19'0 0.0
2017-Dec-10 14:00N 51°57' E 001°19'0 0.0
2017-Dec-10 13:30N 51°57' E 001°19'0 0.0
2017-Dec-10 13:00N 51°57' E 001°19'0 0.0
2017-Dec-10 12:30N 51°57' E 001°19'0 0.0
2017-Dec-10 12:00N 51°57' E 001°19'0 0.0
2017-Dec-10 11:30N 51°57' E 001°19'0 0.0
2017-Dec-10 11:00N 51°57' E 001°19'0 0.0
2017-Dec-10 10:30N 51°57' E 001°19'0 0.0
2017-Dec-10 10:00N 51°57' E 001°19'0 0.0
2017-Dec-10 09:30N 51°57' E 001°19'0 0.0
2017-Dec-10 09:00N 51°57' E 001°19'0 0.0
2017-Dec-10 08:30N 51°57' E 001°19'0 0.0
2017-Dec-10 08:00N 51°57' E 001°19'0 0.0
2017-Dec-10 07:30N 51°57' E 001°19'0 0.0
2017-Dec-10 07:00N 51°57' E 001°19'0 0.0
2017-Dec-10 06:30N 51°57' E 001°19'0 0.0
2017-Dec-10 06:00N 51°57' E 001°19'0 0.0
2017-Dec-10 05:31N 51°57' E 001°19'0 0.0
2017-Dec-10 05:01N 51°57' E 001°19'0 0.0
2017-Dec-10 04:31N 51°57' E 001°19'0 0.0
2017-Dec-10 04:01N 51°57' E 001°19'0 0.0
2017-Dec-10 03:30N 51°57' E 001°19'0 0.0
2017-Dec-10 03:00N 51°57' E 001°19'0 0.0
2017-Dec-10 02:30N 51°57' E 001°19'0 0.0
2017-Dec-10 02:00N 51°57' E 001°19'0 0.0
2017-Dec-10 01:30N 51°57' E 001°19'0 0.0
2017-Dec-10 01:00N 51°57' E 001°19'0 0.0
2017-Dec-10 00:30N 51°57' E 001°19'0 0.0
2017-Dec-10 00:00N 51°57' E 001°19'0 0.0
2017-Dec-09 23:30N 51°57' E 001°19'0 0.0
2017-Dec-09 23:00N 51°57' E 001°19'0 0.0
2017-Dec-09 22:30N 51°57' E 001°19'0 0.0
2017-Dec-09 22:01N 51°57' E 001°19'0 0.0
2017-Dec-09 21:30N 51°57' E 001°19'0 0.0
2017-Dec-09 21:01N 51°57' E 001°19'0 0.0
2017-Dec-09 20:30N 51°57' E 001°19'0 0.0
2017-Dec-09 20:00N 51°57' E 001°19'0 0.0
2017-Dec-09 19:30N 51°57' E 001°19'0 0.0
2017-Dec-09 19:00N 51°57' E 001°19'0 0.0
2017-Dec-09 18:30N 51°57' E 001°19'0 0.0
2017-Dec-09 18:00N 51°57' E 001°19'0 0.0
2017-Dec-09 17:30N 51°57' E 001°19'0 0.0
2017-Dec-09 17:00N 51°57' E 001°19'0 0.0
2017-Dec-09 16:31N 51°57' E 001°19'0 0.0
2017-Dec-09 16:01N 51°57' E 001°19'0 0.0
2017-Dec-09 15:31N 51°57' E 001°19'0 0.0
2017-Dec-09 15:01N 51°57' E 001°19'0 0.0
2017-Dec-09 14:31N 51°57' E 001°19'0 0.0
2017-Dec-09 14:01N 51°57' E 001°19'0 0.0
2017-Dec-09 13:31N 51°57' E 001°19'0 0.0
2017-Dec-09 13:00N 51°57' E 001°19'0 0.0
2017-Dec-09 12:30N 51°57' E 001°19'0 0.0
2017-Dec-09 12:00N 51°57' E 001°19'0 0.0
2017-Dec-09 11:30N 51°57' E 001°19'0 0.0
2017-Dec-09 11:00N 51°57' E 001°19'0 0.0
2017-Dec-09 10:30N 51°57' E 001°19'0 0.0
2017-Dec-09 10:00N 51°57' E 001°19'0 0.0
2017-Dec-09 09:30N 51°57' E 001°19'0 0.0
2017-Dec-09 09:00N 51°57' E 001°19'0 0.0
2017-Dec-09 08:30N 51°57' E 001°19'0 0.0
2017-Dec-09 08:00N 51°57' E 001°19'0 0.0
2017-Dec-09 07:30N 51°57' E 001°19'0 0.0
2017-Dec-09 07:00N 51°57' E 001°19'0 0.0
2017-Dec-09 06:30N 51°57' E 001°19'0 0.0
2017-Dec-09 06:00N 51°57' E 001°19'0 0.0
2017-Dec-09 05:30N 51°57' E 001°19'0 0.0
2017-Dec-09 05:00N 51°57' E 001°19'0 0.0
2017-Dec-09 04:31N 51°57' E 001°19'0 0.0
2017-Dec-09 04:01N 51°57' E 001°19'0 0.0
2017-Dec-09 03:31N 51°57' E 001°19'0 0.0
2017-Dec-09 03:00N 51°57' E 001°19'0 0.0
2017-Dec-09 02:31N 51°57' E 001°19'0 0.0
2017-Dec-09 02:01N 51°57' E 001°19'0 0.0
2017-Dec-09 01:30N 51°57' E 001°19'0 0.0
2017-Dec-09 01:00N 51°57' E 001°19'0 0.0
2017-Dec-09 00:30N 51°57' E 001°19'0 0.0
2017-Dec-09 00:00N 51°57' E 001°19'0 0.0
2017-Dec-08 23:31N 51°57' E 001°19'0 0.0
2017-Dec-08 23:00N 51°57' E 001°19'0 0.0
2017-Dec-08 22:30N 51°57' E 001°19'0 0.0
2017-Dec-08 22:00N 51°57' E 001°19'0 0.0
2017-Dec-08 21:30N 51°57' E 001°19'0 0.0
2017-Dec-08 21:01N 51°57' E 001°19'0 0.0
2017-Dec-08 20:30N 51°57' E 001°19'0 0.0
2017-Dec-08 20:00N 51°57' E 001°19'0 0.0
2017-Dec-08 19:31N 51°57' E 001°19'0 0.0
2017-Dec-08 19:01N 51°57' E 001°19'0 0.0
2017-Dec-08 18:30N 51°57' E 001°19'0 0.0
2017-Dec-08 18:01N 51°57' E 001°19'0 0.0
2017-Dec-08 17:31N 51°57' E 001°19'0 0.0
2017-Dec-08 17:01N 51°57' E 001°19'0 0.0
2017-Dec-08 16:31N 51°57' E 001°19'0 0.0
2017-Dec-08 16:01N 51°57' E 001°19'0 0.0
2017-Dec-08 15:30N 51°57' E 001°19'0 0.0
2017-Dec-08 15:00N 51°57' E 001°19'0 0.0
2017-Dec-08 14:30N 51°57' E 001°19'0 0.0
2017-Dec-08 14:00N 51°57' E 001°19'0 0.0
2017-Dec-08 13:31N 51°57' E 001°19'0 0.0
2017-Dec-08 13:01N 51°57' E 001°19'0 0.0
2017-Dec-08 12:31N 51°57' E 001°19'0 0.0
2017-Dec-08 12:00N 51°57' E 001°19'0 0.0
2017-Dec-08 11:31N 51°57' E 001°19'0 0.0
2017-Dec-08 11:01N 51°57' E 001°19'0 0.0
2017-Dec-08 10:31N 51°57' E 001°19'0 0.0
2017-Dec-08 10:00N 51°57' E 001°19'0 0.0
2017-Dec-08 09:31N 51°57' E 001°19'0 0.0
2017-Dec-08 09:01N 51°57' E 001°19'0 0.0
2017-Dec-08 08:31N 51°57' E 001°19'0 0.0
2017-Dec-08 08:01N 51°57' E 001°19'0 0.0
2017-Dec-08 07:31N 51°57' E 001°19'0 0.0
2017-Dec-08 07:00N 51°57' E 001°19'0 0.0
2017-Dec-08 06:30N 51°57' E 001°19'0 0.0
2017-Dec-08 06:00N 51°57' E 001°19'0 0.0
2017-Dec-08 05:30N 51°57' E 001°19'0 0.0
2017-Dec-08 05:00N 51°57' E 001°19'0 0.2
2017-Dec-08 04:30N 51°57' E 001°19'2 3.1
2017-Dec-08 04:00N 51°56' E 001°21'510.4
2017-Dec-08 03:30N 51°56' E 001°29'510.5
2017-Dec-08 03:01N 51°52' E 001°34'4 7.5
2017-Dec-08 02:30N 51°50' E 001°39'2 4.0
2017-Dec-08 02:00N 51°52' E 001°41'3 6.5
2017-Dec-08 01:30N 51°51' E 001°46'3 6.2
2017-Dec-08 01:00N 51°48' E 001°48'3 5.6
2017-Dec-08 00:30N 51°45' E 001°49'3 6.1
2017-Dec-08 00:00N 51°42' E 001°49'2 4.1
2017-Dec-07 23:30N 51°40' E 001°49'5 9.4
2017-Dec-07 23:00N 51°36' E 001°50'5 9.9
2017-Dec-07 22:30N 51°31' E 001°48'510.1
2017-Dec-07 22:00N 51°26' E 001°46'510.3
2017-Dec-07 21:30N 51°21' E 001°43'510.7
2017-Dec-07 21:00N 51°16' E 001°40'510.5
2017-Dec-07 20:30N 51°11' E 001°40'510.6
2017-Dec-07 20:01N 51°06' E 001°39'612.9
2017-Dec-07 19:30N 51°01' E 001°33'713.2
2017-Dec-07 19:00N 50°55' E 001°27'713.6
2017-Dec-07 18:30N 50°48' E 001°24'713.1
2017-Dec-07 17:57N 50°42' E 001°20'613.5
2017-Dec-07 17:30N 50°38' E 001°13'3213.6
2017-Dec-07 15:10N 50°25' E 000°27'214.1
2017-Dec-07 14:59N 50°24' E 000°23'714.4
2017-Dec-07 14:30N 50°23' E 000°13'714.5
2017-Dec-07 14:00N 50°21' E 000°02'714.7
2017-Dec-07 13:30N 50°20' W 000°10'815.3
2017-Dec-07 13:00N 50°19' W 000°21'816.0
2017-Dec-07 12:30N 50°16' W 000°33'916.8
2017-Dec-07 11:57N 50°13' W 000°47'917.3
2017-Dec-07 11:28N 50°11' W 000°60'1618.0
2017-Dec-07 10:33N 50°06' W 001°24'718.3
2017-Dec-07 10:09N 50°04' W 001°35'4617.4
2017-Dec-07 07:31N 49°52' W 002°44'016.3
2017-Dec-07 07:30N 49°52' W 002°45'815.8
2017-Dec-07 06:59N 49°48' W 002°56'715.6
2017-Dec-07 06:30N 49°44' W 003°06'915.6
2017-Dec-07 05:55N 49°40' W 003°18'615.6
2017-Dec-07 05:30N 49°37' W 003°27'4814.7
2017-Dec-07 02:15N 49°13' W 004°31'2013.6
2017-Dec-07 00:48N 49°03' W 004°56'412.8
2017-Dec-07 00:30N 49°01' W 005°01'5 9.8
2017-Dec-07 00:00N 48°58' W 005°08'1 1.0
2017-Dec-06 23:30N 48°58' W 005°09'4 7.1
2017-Dec-06 23:00N 48°57' W 005°14'612.4
2017-Dec-06 22:30N 48°53' W 005°21'612.6
2017-Dec-06 22:00N 48°50' W 005°29'612.5
2017-Dec-06 21:30N 48°46' W 005°37'913.2
2017-Dec-06 20:50N 48°38' W 005°42'  
2017-Dec-02 15:47N 36°41' E 013°41'518.8
2017-Dec-02 15:30N 36°40' E 013°47'918.8
2017-Dec-02 15:00N 36°37' E 013°58'918.6
2017-Dec-02 14:30N 36°33' E 014°09'918.5
2017-Dec-02 14:00N 36°30' E 014°20'918.3
2017-Dec-02 13:30N 36°28' E 014°31'918.8
2017-Dec-02 13:00N 36°25' E 014°42'918.5
2017-Dec-02 12:30N 36°22' E 014°53'  

Dump ship's entire track history